sensor_id;sensor_type;location;lat;lon;timestamp;pressure;altitude;pressure_sealevel;temperature;humidity
37304;BME280;23188;51.188;16.374;2023-01-25T00:03:50;102357.17;;;4.91;100.00
37304;BME280;23188;51.188;16.374;2023-01-25T00:07:53;102352.58;;;4.93;100.00
37304;BME280;23188;51.188;16.374;2023-01-25T00:12:00;102354.08;;;4.96;100.00
37304;BME280;23188;51.188;16.374;2023-01-25T00:16:03;102356.38;;;5.02;100.00
37304;BME280;23188;51.188;16.374;2023-01-25T00:20:08;102353.24;;;5.08;100.00
37304;BME280;23188;51.188;16.374;2023-01-25T00:24:11;102346.85;;;5.11;100.00
37304;BME280;23188;51.188;16.374;2023-01-25T00:28:16;102341.56;;;5.11;100.00
37304;BME280;23188;51.188;16.374;2023-01-25T00:36:26;102343.17;;;5.17;100.00
37304;BME280;23188;51.188;16.374;2023-01-25T00:40:29;102332.95;;;5.18;100.00
37304;BME280;23188;51.188;16.374;2023-01-25T00:44:32;102325.98;;;5.22;100.00
37304;BME280;23188;51.188;16.374;2023-01-25T00:48:34;102315.02;;;5.24;100.00
37304;BME280;23188;51.188;16.374;2023-01-25T00:52:42;102304.48;;;5.29;100.00
37304;BME280;23188;51.188;16.374;2023-01-25T00:56:45;102304.65;;;5.30;100.00
37304;BME280;23188;51.188;16.374;2023-01-25T01:00:53;102298.80;;;5.32;100.00
37304;BME280;23188;51.188;16.374;2023-01-25T01:04:56;102304.66;;;5.30;99.99
37304;BME280;23188;51.188;16.374;2023-01-25T01:08:59;102298.92;;;5.27;99.95
37304;BME280;23188;51.188;16.374;2023-01-25T01:13:02;102293.27;;;5.21;99.70
37304;BME280;23188;51.188;16.374;2023-01-25T01:17:05;102291.17;;;5.15;99.23
37304;BME280;23188;51.188;16.374;2023-01-25T01:21:09;102282.95;;;5.06;99.49
37304;BME280;23188;51.188;16.374;2023-01-25T01:25:12;102273.14;;;5.05;99.96
37304;BME280;23188;51.188;16.374;2023-01-25T01:29:41;102267.66;;;5.06;99.99
37304;BME280;23188;51.188;16.374;2023-01-25T01:33:44;102259.68;;;5.08;100.00
37304;BME280;23188;51.188;16.374;2023-01-25T01:37:53;102255.10;;;5.15;100.00
37304;BME280;23188;51.188;16.374;2023-01-25T01:41:56;102253.09;;;5.18;100.00
37304;BME280;23188;51.188;16.374;2023-01-25T01:46:01;102252.88;;;5.19;100.00
37304;BME280;23188;51.188;16.374;2023-01-25T01:50:16;102248.95;;;5.15;99.73
37304;BME280;23188;51.188;16.374;2023-01-25T01:58:59;102242.04;;;5.04;100.00
37304;BME280;23188;51.188;16.374;2023-01-25T02:03:04;102239.55;;;4.98;100.00
37304;BME280;23188;51.188;16.374;2023-01-25T02:07:12;102242.92;;;4.70;100.00
37304;BME280;23188;51.188;16.374;2023-01-25T02:11:20;102241.41;;;4.46;100.00
37304;BME280;23188;51.188;16.374;2023-01-25T02:15:37;102229.15;;;4.22;100.00
37304;BME280;23188;51.188;16.374;2023-01-25T02:24:38;102218.53;;;4.19;100.00
37304;BME280;23188;51.188;16.374;2023-01-25T02:28:54;102222.27;;;4.24;100.00
37304;BME280;23188;51.188;16.374;2023-01-25T02:32:59;102222.54;;;4.20;100.00
37304;BME280;23188;51.188;16.374;2023-01-25T02:37:02;102223.50;;;4.24;100.00
37304;BME280;23188;51.188;16.374;2023-01-25T02:41:09;102225.14;;;4.36;100.00
37304;BME280;23188;51.188;16.374;2023-01-25T02:45:16;102231.98;;;4.43;100.00
37304;BME280;23188;51.188;16.374;2023-01-25T02:49:20;102231.40;;;4.53;100.00
37304;BME280;23188;51.188;16.374;2023-01-25T02:59:08;102220.20;;;4.58;100.00
37304;BME280;23188;51.188;16.374;2023-01-25T03:08:12;102220.27;;;4.55;100.00
37304;BME280;23188;51.188;16.374;2023-01-25T03:12:15;102218.41;;;4.59;100.00
37304;BME280;23188;51.188;16.374;2023-01-25T03:16:18;102216.53;;;4.57;99.83
37304;BME280;23188;51.188;16.374;2023-01-25T03:20:21;102213.73;;;4.57;99.47
37304;BME280;23188;51.188;16.374;2023-01-25T03:24:24;102211.67;;;4.34;99.98
37304;BME280;23188;51.188;16.374;2023-01-25T03:28:27;102209.96;;;4.32;100.00
37304;BME280;23188;51.188;16.374;2023-01-25T03:32:53;102211.58;;;4.38;100.00
37304;BME280;23188;51.188;16.374;2023-01-25T03:36:56;102211.88;;;4.39;100.00
37304;BME280;23188;51.188;16.374;2023-01-25T03:40:59;102207.98;;;4.34;100.00
37304;BME280;23188;51.188;16.374;2023-01-25T03:45:02;102206.64;;;4.38;100.00
37304;BME280;23188;51.188;16.374;2023-01-25T03:49:05;102201.27;;;4.49;100.00
37304;BME280;23188;51.188;16.374;2023-01-25T03:53:08;102198.71;;;4.60;100.00
37304;BME280;23188;51.188;16.374;2023-01-25T03:57:21;102189.73;;;4.67;100.00
37304;BME280;23188;51.188;16.374;2023-01-25T04:01:24;102181.19;;;4.71;99.27
37304;BME280;23188;51.188;16.374;2023-01-25T04:05:27;102176.95;;;4.66;99.49
37304;BME280;23188;51.188;16.374;2023-01-25T04:09:33;102179.05;;;4.66;99.75
37304;BME280;23188;51.188;16.374;2023-01-25T04:13:37;102170.38;;;4.68;99.27
37304;BME280;23188;51.188;16.374;2023-01-25T04:17:40;102165.84;;;4.67;99.22
37304;BME280;23188;51.188;16.374;2023-01-25T04:22:09;102159.49;;;4.54;99.95
37304;BME280;23188;51.188;16.374;2023-01-25T04:26:12;102159.36;;;4.60;100.00
37304;BME280;23188;51.188;16.374;2023-01-25T04:36:07;102152.06;;;4.70;99.85
37304;BME280;23188;51.188;16.374;2023-01-25T04:46:04;102152.91;;;4.44;100.00
37304;BME280;23188;51.188;16.374;2023-01-25T04:50:07;102156.39;;;4.45;100.00
37304;BME280;23188;51.188;16.374;2023-01-25T04:54:15;102146.49;;;4.47;100.00
37304;BME280;23188;51.188;16.374;2023-01-25T04:58:18;102141.17;;;4.22;100.00
37304;BME280;23188;51.188;16.374;2023-01-25T05:02:21;102142.22;;;4.08;100.00
37304;BME280;23188;51.188;16.374;2023-01-25T05:06:24;102138.42;;;3.91;100.00
37304;BME280;23188;51.188;16.374;2023-01-25T05:10:27;102139.17;;;3.81;100.00
37304;BME280;23188;51.188;16.374;2023-01-25T05:14:31;102138.15;;;3.80;100.00
37304;BME280;23188;51.188;16.374;2023-01-25T05:18:34;102133.02;;;3.74;100.00
37304;BME280;23188;51.188;16.374;2023-01-25T05:22:49;102126.36;;;3.81;100.00
37304;BME280;23188;51.188;16.374;2023-01-25T05:26:57;102128.11;;;3.97;100.00
37304;BME280;23188;51.188;16.374;2023-01-25T05:31:05;102116.90;;;4.09;100.00
37304;BME280;23188;51.188;16.374;2023-01-25T05:35:15;102118.34;;;4.08;100.00
37304;BME280;23188;51.188;16.374;2023-01-25T05:39:17;102121.20;;;4.06;100.00
37304;BME280;23188;51.188;16.374;2023-01-25T05:43:20;102116.90;;;3.96;100.00
37304;BME280;23188;51.188;16.374;2023-01-25T05:47:25;102113.21;;;3.95;100.00
37304;BME280;23188;51.188;16.374;2023-01-25T05:51:28;102107.55;;;3.97;100.00
37304;BME280;23188;51.188;16.374;2023-01-25T05:55:31;102104.16;;;3.99;100.00
37304;BME280;23188;51.188;16.374;2023-01-25T05:59:36;102101.67;;;4.08;100.00
37304;BME280;23188;51.188;16.374;2023-01-25T06:03:39;102095.71;;;4.14;100.00
37304;BME280;23188;51.188;16.374;2023-01-25T06:07:42;102086.33;;;4.11;100.00
37304;BME280;23188;51.188;16.374;2023-01-25T06:11:45;102077.36;;;3.97;100.00
37304;BME280;23188;51.188;16.374;2023-01-25T06:15:55;102079.96;;;3.92;100.00
37304;BME280;23188;51.188;16.374;2023-01-25T06:20:02;102077.29;;;3.93;100.00
37304;BME280;23188;51.188;16.374;2023-01-25T06:24:05;102085.89;;;3.93;100.00
37304;BME280;23188;51.188;16.374;2023-01-25T06:28:08;102088.53;;;3.99;100.00
37304;BME280;23188;51.188;16.374;2023-01-25T06:32:11;102083.08;;;4.00;100.00
37304;BME280;23188;51.188;16.374;2023-01-25T06:36:17;102077.92;;;4.02;100.00
37304;BME280;23188;51.188;16.374;2023-01-25T06:40:34;102076.44;;;3.99;100.00
37304;BME280;23188;51.188;16.374;2023-01-25T06:44:37;102078.41;;;4.11;100.00
37304;BME280;23188;51.188;16.374;2023-01-25T06:48:40;102079.87;;;4.09;100.00
37304;BME280;23188;51.188;16.374;2023-01-25T06:52:51;102081.29;;;4.01;100.00
37304;BME280;23188;51.188;16.374;2023-01-25T06:56:54;102081.05;;;3.90;100.00
37304;BME280;23188;51.188;16.374;2023-01-25T07:01:03;102079.06;;;3.78;100.00
37304;BME280;23188;51.188;16.374;2023-01-25T07:05:06;102074.04;;;3.75;100.00
37304;BME280;23188;51.188;16.374;2023-01-25T07:09:11;102070.66;;;3.69;100.00
37304;BME280;23188;51.188;16.374;2023-01-25T07:13:14;102065.58;;;3.69;100.00
37304;BME280;23188;51.188;16.374;2023-01-25T07:17:17;102065.41;;;3.69;100.00
37304;BME280;23188;51.188;16.374;2023-01-25T07:21:22;102064.84;;;3.71;100.00
37304;BME280;23188;51.188;16.374;2023-01-25T07:25:51;102062.09;;;3.76;100.00
37304;BME280;23188;51.188;16.374;2023-01-25T07:29:54;102061.04;;;3.76;100.00
37304;BME280;23188;51.188;16.374;2023-01-25T07:33:57;102059.22;;;3.78;100.00
37304;BME280;23188;51.188;16.374;2023-01-25T07:38:06;102054.45;;;3.72;100.00
37304;BME280;23188;51.188;16.374;2023-01-25T07:42:09;102044.20;;;3.75;100.00
37304;BME280;23188;51.188;16.374;2023-01-25T07:46:13;102048.40;;;3.90;100.00
37304;BME280;23188;51.188;16.374;2023-01-25T07:50:17;102045.09;;;4.03;100.00
37304;BME280;23188;51.188;16.374;2023-01-25T07:54:22;102043.30;;;4.11;100.00
37304;BME280;23188;51.188;16.374;2023-01-25T07:58:54;102038.80;;;4.08;100.00
37304;BME280;23188;51.188;16.374;2023-01-25T08:02:57;102036.02;;;4.00;100.00
37304;BME280;23188;51.188;16.374;2023-01-25T08:06:59;102027.23;;;3.94;100.00
37304;BME280;23188;51.188;16.374;2023-01-25T08:15:15;102027.13;;;3.77;100.00
37304;BME280;23188;51.188;16.374;2023-01-25T08:19:18;102022.77;;;3.70;100.00
37304;BME280;23188;51.188;16.374;2023-01-25T08:23:21;102025.20;;;3.77;100.00
37304;BME280;23188;51.188;16.374;2023-01-25T08:32:01;102009.55;;;3.79;100.00
37304;BME280;23188;51.188;16.374;2023-01-25T08:36:08;102009.70;;;3.80;100.00
37304;BME280;23188;51.188;16.374;2023-01-25T08:40:13;102007.79;;;3.71;100.00
37304;BME280;23188;51.188;16.374;2023-01-25T08:48:55;102014.49;;;3.77;100.00
37304;BME280;23188;51.188;16.374;2023-01-25T08:53:49;102012.71;;;3.85;100.00
37304;BME280;23188;51.188;16.374;2023-01-25T09:03:51;101989.87;;;3.93;100.00
37304;BME280;23188;51.188;16.374;2023-01-25T09:08:14;101982.47;;;3.94;100.00
37304;BME280;23188;51.188;16.374;2023-01-25T09:12:18;101977.96;;;4.05;100.00
37304;BME280;23188;51.188;16.374;2023-01-25T09:16:24;101975.73;;;4.03;100.00
37304;BME280;23188;51.188;16.374;2023-01-25T09:20:31;101978.50;;;4.11;100.00
37304;BME280;23188;51.188;16.374;2023-01-25T09:24:37;101972.55;;;4.11;99.56
37304;BME280;23188;51.188;16.374;2023-01-25T09:28:42;101973.52;;;4.06;99.82
37304;BME280;23188;51.188;16.374;2023-01-25T09:32:49;101974.95;;;4.06;100.00
37304;BME280;23188;51.188;16.374;2023-01-25T09:37:19;101966.30;;;3.95;100.00
37304;BME280;23188;51.188;16.374;2023-01-25T09:46:49;101955.81;;;3.87;100.00
37304;BME280;23188;51.188;16.374;2023-01-25T09:55:48;101937.87;;;3.88;100.00
37304;BME280;23188;51.188;16.374;2023-01-25T09:59:53;101935.65;;;3.93;100.00
37304;BME280;23188;51.188;16.374;2023-01-25T10:04:51;101934.08;;;3.92;100.00
37304;BME280;23188;51.188;16.374;2023-01-25T10:08:54;101922.05;;;3.89;100.00
37304;BME280;23188;51.188;16.374;2023-01-25T10:13:01;101918.80;;;3.85;100.00
37304;BME280;23188;51.188;16.374;2023-01-25T10:17:14;101913.13;;;3.94;100.00
37304;BME280;23188;51.188;16.374;2023-01-25T10:21:56;101910.36;;;3.93;100.00
37304;BME280;23188;51.188;16.374;2023-01-25T10:30:55;101910.50;;;3.94;100.00
37304;BME280;23188;51.188;16.374;2023-01-25T10:35:23;101912.48;;;3.93;100.00
37304;BME280;23188;51.188;16.374;2023-01-25T10:39:44;101907.14;;;4.01;100.00
37304;BME280;23188;51.188;16.374;2023-01-25T10:43:52;101899.88;;;4.10;100.00
37304;BME280;23188;51.188;16.374;2023-01-25T10:48:30;101895.14;;;4.22;100.00
37304;BME280;23188;51.188;16.374;2023-01-25T10:52:36;101885.93;;;4.24;100.00
37304;BME280;23188;51.188;16.374;2023-01-25T10:56:42;101882.67;;;4.34;100.00
37304;BME280;23188;51.188;16.374;2023-01-25T11:00:50;101880.04;;;4.45;100.00
37304;BME280;23188;51.188;16.374;2023-01-25T11:04:54;101878.45;;;4.57;99.86
37304;BME280;23188;51.188;16.374;2023-01-25T11:08:59;101869.13;;;4.68;98.93
37304;BME280;23188;51.188;16.374;2023-01-25T11:17:29;101864.73;;;4.63;98.13
37304;BME280;23188;51.188;16.374;2023-01-25T11:21:59;101859.76;;;4.54;98.33
37304;BME280;23188;51.188;16.374;2023-01-25T11:26:18;101848.00;;;4.42;98.23
37304;BME280;23188;51.188;16.374;2023-01-25T11:30:22;101837.27;;;4.42;98.20
37304;BME280;23188;51.188;16.374;2023-01-25T11:34:28;101827.94;;;4.43;97.68
37304;BME280;23188;51.188;16.374;2023-01-25T11:38:32;101820.43;;;4.52;98.66
37304;BME280;23188;51.188;16.374;2023-01-25T12:16:05;101760.59;;;4.34;98.06
37304;BME280;23188;51.188;16.374;2023-01-25T12:20:39;101750.59;;;4.39;98.14
37304;BME280;23188;51.188;16.374;2023-01-25T12:24:56;101734.44;;;4.39;98.46
37304;BME280;23188;51.188;16.374;2023-01-25T12:33:33;101710.11;;;4.47;98.13
37304;BME280;23188;51.188;16.374;2023-01-25T12:38:14;101701.34;;;4.52;97.92
37304;BME280;23188;51.188;16.374;2023-01-25T12:42:25;101694.95;;;4.54;97.66
37304;BME280;23188;51.188;16.374;2023-01-25T12:50:58;101689.10;;;4.66;98.08
37304;BME280;23188;51.188;16.374;2023-01-25T12:55:05;101679.66;;;4.59;97.02
37304;BME280;23188;51.188;16.374;2023-01-25T13:26:57;101657.80;;;4.56;95.25
37304;BME280;23188;51.188;16.374;2023-01-25T13:31:01;101659.10;;;4.65;95.75
37304;BME280;23188;51.188;16.374;2023-01-25T13:35:24;101655.57;;;4.55;95.58
37304;BME280;23188;51.188;16.374;2023-01-25T13:43:34;101637.86;;;4.49;96.87
37304;BME280;23188;51.188;16.374;2023-01-25T13:47:37;101637.35;;;4.48;97.32
37304;BME280;23188;51.188;16.374;2023-01-25T13:51:42;101632.58;;;4.54;96.85
37304;BME280;23188;51.188;16.374;2023-01-25T13:55:51;101626.81;;;4.53;96.94
37304;BME280;23188;51.188;16.374;2023-01-25T13:59:59;101629.27;;;4.54;96.49
37304;BME280;23188;51.188;16.374;2023-01-25T14:04:21;101626.46;;;4.53;96.16
37304;BME280;23188;51.188;16.374;2023-01-25T14:08:25;101624.98;;;4.55;95.95
37304;BME280;23188;51.188;16.374;2023-01-25T14:12:39;101624.40;;;4.57;95.95
37304;BME280;23188;51.188;16.374;2023-01-25T14:16:44;101621.86;;;4.59;95.98
37304;BME280;23188;51.188;16.374;2023-01-25T14:20:50;101615.85;;;4.60;96.08
37304;BME280;23188;51.188;16.374;2023-01-25T14:25:17;101606.27;;;4.58;95.41
37304;BME280;23188;51.188;16.374;2023-01-25T14:29:20;101606.33;;;4.61;95.62
37304;BME280;23188;51.188;16.374;2023-01-25T14:33:35;101598.77;;;4.61;95.06
37304;BME280;23188;51.188;16.374;2023-01-25T14:37:44;101601.02;;;4.63;95.04
37304;BME280;23188;51.188;16.374;2023-01-25T14:41:47;101591.70;;;4.67;95.67
37304;BME280;23188;51.188;16.374;2023-01-25T14:46:23;101586.95;;;4.72;95.03
37304;BME280;23188;51.188;16.374;2023-01-25T14:50:51;101583.16;;;4.70;94.44
37304;BME280;23188;51.188;16.374;2023-01-25T14:55:08;101571.80;;;4.64;94.72
37304;BME280;23188;51.188;16.374;2023-01-25T14:59:43;101568.05;;;4.60;94.92
37304;BME280;23188;51.188;16.374;2023-01-25T15:03:50;101566.08;;;4.56;95.33
37304;BME280;23188;51.188;16.374;2023-01-25T15:07:57;101551.96;;;4.58;95.63
37304;BME280;23188;51.188;16.374;2023-01-25T15:16:17;101537.37;;;4.49;95.60
37304;BME280;23188;51.188;16.374;2023-01-25T15:20:31;101526.34;;;4.48;94.98
37304;BME280;23188;51.188;16.374;2023-01-25T15:24:35;101522.58;;;4.45;95.94
37304;BME280;23188;51.188;16.374;2023-01-25T15:28:40;101515.64;;;4.37;95.59
37304;BME280;23188;51.188;16.374;2023-01-25T15:32:44;101508.52;;;4.35;95.50
37304;BME280;23188;51.188;16.374;2023-01-25T15:36:47;101504.38;;;4.38;95.60
37304;BME280;23188;51.188;16.374;2023-01-25T15:41:21;101499.63;;;4.38;95.79
37304;BME280;23188;51.188;16.374;2023-01-25T15:45:24;101502.26;;;4.34;96.11
37304;BME280;23188;51.188;16.374;2023-01-25T15:49:28;101494.83;;;4.35;96.09
37304;BME280;23188;51.188;16.374;2023-01-25T15:53:34;101489.05;;;4.39;96.44
37304;BME280;23188;51.188;16.374;2023-01-25T15:58:05;101473.86;;;4.41;96.32
37304;BME280;23188;51.188;16.374;2023-01-25T16:02:11;101469.48;;;4.41;96.35
37304;BME280;23188;51.188;16.374;2023-01-25T16:11:03;101464.86;;;4.23;96.99
37304;BME280;23188;51.188;16.374;2023-01-25T16:15:06;101462.92;;;4.19;97.38
37304;BME280;23188;51.188;16.374;2023-01-25T16:19:19;101459.68;;;4.16;97.34
37304;BME280;23188;51.188;16.374;2023-01-25T16:23:25;101454.53;;;4.18;97.12
37304;BME280;23188;51.188;16.374;2023-01-25T16:27:28;101453.56;;;4.20;97.16
37304;BME280;23188;51.188;16.374;2023-01-25T16:31:37;101443.05;;;4.20;97.13
37304;BME280;23188;51.188;16.374;2023-01-25T16:35:40;101441.23;;;4.17;97.13
37304;BME280;23188;51.188;16.374;2023-01-25T16:39:55;101441.98;;;4.15;97.08
37304;BME280;23188;51.188;16.374;2023-01-25T16:43:58;101434.64;;;4.14;97.11
37304;BME280;23188;51.188;16.374;2023-01-25T16:48:01;101426.79;;;4.12;97.31
37304;BME280;23188;51.188;16.374;2023-01-25T16:52:05;101418.90;;;4.12;97.18
37304;BME280;23188;51.188;16.374;2023-01-25T16:56:30;101409.39;;;4.08;97.27
37304;BME280;23188;51.188;16.374;2023-01-25T17:00:33;101404.42;;;4.00;97.61
37304;BME280;23188;51.188;16.374;2023-01-25T17:04:36;101402.73;;;3.98;97.63
37304;BME280;23188;51.188;16.374;2023-01-25T17:08:39;101395.13;;;4.00;98.10
37304;BME280;23188;51.188;16.374;2023-01-25T17:12:41;101391.65;;;4.04;98.09
37304;BME280;23188;51.188;16.374;2023-01-25T17:16:44;101392.59;;;4.07;97.96
37304;BME280;23188;51.188;16.374;2023-01-25T17:21:15;101389.48;;;4.10;97.99
37304;BME280;23188;51.188;16.374;2023-01-25T17:25:19;101385.88;;;4.13;97.85
37304;BME280;23188;51.188;16.374;2023-01-25T17:29:22;101375.55;;;4.12;97.62
37304;BME280;23188;51.188;16.374;2023-01-25T17:33:26;101374.06;;;4.14;97.80
37304;BME280;23188;51.188;16.374;2023-01-25T17:37:29;101366.25;;;4.17;97.52
37304;BME280;23188;51.188;16.374;2023-01-25T17:41:33;101368.13;;;4.18;97.33
37304;BME280;23188;51.188;16.374;2023-01-25T17:45:36;101370.45;;;4.17;97.04
37304;BME280;23188;51.188;16.374;2023-01-25T17:49:42;101374.21;;;4.06;97.75
37304;BME280;23188;51.188;16.374;2023-01-25T17:53:45;101363.37;;;4.00;97.82
37304;BME280;23188;51.188;16.374;2023-01-25T17:57:49;101367.56;;;3.90;98.28
37304;BME280;23188;51.188;16.374;2023-01-25T18:01:53;101361.22;;;3.86;98.85
37304;BME280;23188;51.188;16.374;2023-01-25T18:05:56;101356.10;;;3.82;99.12
37304;BME280;23188;51.188;16.374;2023-01-25T18:15:53;101344.27;;;3.79;99.77
37304;BME280;23188;51.188;16.374;2023-01-25T18:19:56;101338.39;;;3.77;99.91
37304;BME280;23188;51.188;16.374;2023-01-25T18:24:03;101338.02;;;3.78;99.96
37304;BME280;23188;51.188;16.374;2023-01-25T18:28:27;101333.89;;;3.80;99.89
37304;BME280;23188;51.188;16.374;2023-01-25T18:32:30;101329.06;;;3.82;99.75
37304;BME280;23188;51.188;16.374;2023-01-25T18:36:35;101332.40;;;3.87;99.71
37304;BME280;23188;51.188;16.374;2023-01-25T18:45:36;101317.74;;;3.95;98.49
37304;BME280;23188;51.188;16.374;2023-01-25T18:50:04;101316.69;;;3.95;98.25
37304;BME280;23188;51.188;16.374;2023-01-25T18:54:10;101307.89;;;3.95;97.92
37304;BME280;23188;51.188;16.374;2023-01-25T19:03:21;101301.75;;;3.96;97.48
37304;BME280;23188;51.188;16.374;2023-01-25T19:07:25;101300.73;;;3.94;97.29
37304;BME280;23188;51.188;16.374;2023-01-25T19:11:28;101297.19;;;3.85;97.20
37304;BME280;23188;51.188;16.374;2023-01-25T19:15:31;101301.29;;;3.79;97.73
37304;BME280;23188;51.188;16.374;2023-01-25T19:19:33;101296.63;;;3.77;98.00
37304;BME280;23188;51.188;16.374;2023-01-25T19:23:39;101289.98;;;3.71;98.11
37304;BME280;23188;51.188;16.374;2023-01-25T19:32:40;101270.08;;;3.74;98.17
37304;BME280;23188;51.188;16.374;2023-01-25T19:36:43;101267.86;;;3.72;98.13
37304;BME280;23188;51.188;16.374;2023-01-25T19:40:51;101267.09;;;3.60;98.46
37304;BME280;23188;51.188;16.374;2023-01-25T19:44:54;101253.66;;;3.57;99.10
37304;BME280;23188;51.188;16.374;2023-01-25T19:48:59;101247.66;;;3.58;99.34
37304;BME280;23188;51.188;16.374;2023-01-25T19:53:13;101237.98;;;3.60;99.53
37304;BME280;23188;51.188;16.374;2023-01-25T19:57:16;101232.27;;;3.57;99.47
37304;BME280;23188;51.188;16.374;2023-01-25T20:01:21;101222.75;;;3.53;99.85
37304;BME280;23188;51.188;16.374;2023-01-25T20:05:26;101214.12;;;3.60;99.99
37304;BME280;23188;51.188;16.374;2023-01-25T20:09:29;101216.98;;;3.63;99.81
37304;BME280;23188;51.188;16.374;2023-01-25T20:13:32;101215.74;;;3.58;99.70
37304;BME280;23188;51.188;16.374;2023-01-25T20:17:38;101206.90;;;3.56;99.91
37304;BME280;23188;51.188;16.374;2023-01-25T20:21:42;101204.58;;;3.57;99.97
37304;BME280;23188;51.188;16.374;2023-01-25T20:36:05;101198.48;;;3.70;100.00
37304;BME280;23188;51.188;16.374;2023-01-25T20:40:10;101190.70;;;3.76;99.69
37304;BME280;23188;51.188;16.374;2023-01-25T20:44:15;101188.92;;;3.72;99.10
37304;BME280;23188;51.188;16.374;2023-01-25T20:48:22;101182.39;;;3.73;99.59
37304;BME280;23188;51.188;16.374;2023-01-25T20:52:26;101177.81;;;3.73;98.94
37304;BME280;23188;51.188;16.374;2023-01-25T20:56:29;101176.33;;;3.66;98.92
37304;BME280;23188;51.188;16.374;2023-01-25T21:00:41;101168.03;;;3.63;99.29
37304;BME280;23188;51.188;16.374;2023-01-25T21:04:44;101166.10;;;3.68;99.65
37304;BME280;23188;51.188;16.374;2023-01-25T21:08:47;101161.68;;;3.73;99.46
37304;BME280;23188;51.188;16.374;2023-01-25T21:12:52;101158.48;;;3.83;99.26
37304;BME280;23188;51.188;16.374;2023-01-25T21:16:55;101155.21;;;3.90;98.58
37304;BME280;23188;51.188;16.374;2023-01-25T21:21:03;101158.59;;;3.98;98.13
37304;BME280;23188;51.188;16.374;2023-01-25T21:25:08;101163.34;;;3.98;96.75
37304;BME280;23188;51.188;16.374;2023-01-25T21:29:12;101158.83;;;3.92;96.34
37304;BME280;23188;51.188;16.374;2023-01-25T21:33:15;101154.98;;;3.87;96.71
37304;BME280;23188;51.188;16.374;2023-01-25T21:37:27;101152.79;;;3.85;97.26
37304;BME280;23188;51.188;16.374;2023-01-25T21:41:32;101153.09;;;3.86;97.51
37304;BME280;23188;51.188;16.374;2023-01-25T21:45:38;101146.83;;;3.85;97.28
37304;BME280;23188;51.188;16.374;2023-01-25T21:49:59;101146.39;;;3.83;97.32
37304;BME280;23188;51.188;16.374;2023-01-25T21:54:27;101143.45;;;3.86;97.58
37304;BME280;23188;51.188;16.374;2023-01-25T21:59:03;101140.38;;;3.84;97.33
37304;BME280;23188;51.188;16.374;2023-01-25T22:03:11;101132.01;;;3.87;97.70
37304;BME280;23188;51.188;16.374;2023-01-25T22:07:18;101126.43;;;3.90;97.30
37304;BME280;23188;51.188;16.374;2023-01-25T22:16:19;101101.52;;;3.77;97.49
37304;BME280;23188;51.188;16.374;2023-01-25T22:30:47;101093.86;;;3.44;100.00
37304;BME280;23188;51.188;16.374;2023-01-25T22:34:50;101085.29;;;3.52;99.83
37304;BME280;23188;51.188;16.374;2023-01-25T22:38:54;101081.02;;;3.59;99.54
37304;BME280;23188;51.188;16.374;2023-01-25T22:43:01;101078.21;;;3.63;98.97
37304;BME280;23188;51.188;16.374;2023-01-25T22:47:04;101077.86;;;3.67;98.40
37304;BME280;23188;51.188;16.374;2023-01-25T22:51:15;101080.45;;;3.73;98.78
37304;BME280;23188;51.188;16.374;2023-01-25T22:55:19;101071.84;;;3.86;99.03
37304;BME280;23188;51.188;16.374;2023-01-25T22:59:21;101065.16;;;4.00;98.19
37304;BME280;23188;51.188;16.374;2023-01-25T23:03:27;101059.88;;;4.13;97.72
37304;BME280;23188;51.188;16.374;2023-01-25T23:07:30;101052.25;;;4.27;97.27
37304;BME280;23188;51.188;16.374;2023-01-25T23:11:35;101040.55;;;4.30;95.88
37304;BME280;23188;51.188;16.374;2023-01-25T23:15:40;101038.38;;;4.23;95.29
37304;BME280;23188;51.188;16.374;2023-01-25T23:19:45;101032.15;;;4.25;95.73
37304;BME280;23188;51.188;16.374;2023-01-25T23:24:00;101023.21;;;4.28;95.66
37304;BME280;23188;51.188;16.374;2023-01-25T23:28:04;101024.02;;;4.38;95.86
37304;BME280;23188;51.188;16.374;2023-01-25T23:32:09;101021.45;;;4.45;95.49
37304;BME280;23188;51.188;16.374;2023-01-25T23:36:18;101017.05;;;4.49;95.16
37304;BME280;23188;51.188;16.374;2023-01-25T23:40:22;101012.89;;;4.52;94.58
37304;BME280;23188;51.188;16.374;2023-01-25T23:44:28;101010.38;;;4.53;94.25
37304;BME280;23188;51.188;16.374;2023-01-25T23:48:32;101005.27;;;4.53;94.00
37304;BME280;23188;51.188;16.374;2023-01-25T23:52:37;101006.23;;;4.51;93.76
37304;BME280;23188;51.188;16.374;2023-01-25T23:56:40;101003.16;;;4.46;93.56
